M I D A S
Marine Information and Data Acquisition System
Tripno 811 of the Zeeleeuw from 2004-11-23 08:13:38 to 2004-11-23 15:31:57
Back to CruiseResearch ActivitiesStationsMapUnderway DataData graphs

EquipmentUnitsComment
TimeDGPSUTC
LatitudeDGPSDM.mWGS84
LongitudeDGPSDM.mWGS84
TemperatureSBE03/SBE38deg celciusITS90
ConductivitySBE21S/mITS90
SalinitySBE21 Practical Salinity Units
ChlorophylAChelsea fluorimeterg/lCalibrated in Aceton
Missing or incorrect values are displayed as -999
Sea surface data collected by the RV Zeeleeuw from 2004-11-23 06:49:41 to 2004-11-23 15:42:07
Time Latitude Longitude Temperature Conductivity Salinity ChlorophylA
2004-11-23 06:50:46 51°13.616 2°56.063 15.283215 0.070541 0.407364 -0.916087
2004-11-23 06:51:46 51°13.617 2°56.063 15.295404 0.070541 0.407357 -0.882377
2004-11-23 06:52:46 51°13.618 2°56.063 15.307263 0.070541 0.40735 -0.882377
2004-11-23 06:53:46 51°13.618 2°56.062 15.316215 0.070541 0.407336 -0.848668
2004-11-23 06:54:46 51°13.617 2°56.061 15.323432 0.070645 0.40795 -0.848668
2004-11-23 06:55:46 51°13.618 2°56.06 15.328915 0.070645 0.407943 -0.882377
2004-11-23 06:56:46 51°13.618 2°56.06 15.33955 0.070645 0.407929 -0.882377
2004-11-23 06:57:46 51°13.617 2°56.06 15.351308 0.070645 0.407929 -0.882377
2004-11-23 06:58:46 51°13.617 2°56.06 15.361285 0.070645 0.407915 -0.916087
2004-11-23 06:59:46 51°13.618 2°56.06 15.368263 0.070645 0.407901 -0.882377
2004-11-23 07:00:45 51°13.619 2°56.06 15.371775 0.070645 0.407901 -0.848668
2004-11-23 07:01:46 51°13.619 2°56.06 15.383762 0.070645 0.407887 -0.848668
2004-11-23 07:02:45 51°13.619 2°56.06 15.387835 0.070645 0.40788 -0.882377
2004-11-23 07:03:45 51°13.62 2°56.059 15.396355 0.070645 0.40788 -0.916087
2004-11-23 07:04:46 51°13.62 2°56.06 15.408198 0.070645 0.407858 -0.882377
2004-11-23 07:05:46 51°13.619 2°56.06 15.413393 0.070645 0.407851 -0.882377
2004-11-23 07:06:46 51°13.618 2°56.06 15.421582 0.070645 0.407844 -0.882377
2004-11-23 07:07:46 51°13.618 2°56.06 15.429116 0.070645 0.407844 -0.916087
2004-11-23 07:08:46 51°13.618 2°56.06 15.431268 0.070645 0.40783 -0.882377
2004-11-23 07:09:46 51°13.618 2°56.059 15.433373 0.070645 0.407816 -0.916087
2004-11-23 07:10:46 51°13.618 2°56.06 15.442543 0.070645 0.407816 -0.882377
2004-11-23 07:11:46 51°13.619 2°56.06 15.446098 0.070645 0.407795 -0.882377
2004-11-23 07:12:46 51°13.619 2°56.06 15.448952 0.070645 0.407788 -0.882377
2004-11-23 07:13:46 51°13.619 2°56.06 15.446238 0.070645 0.407781 -0.848668
2004-11-23 07:14:46 51°13.619 2°56.06 15.449279 0.070645 0.407767 -0.882377
2004-11-23 07:15:45 51°13.619 2°56.059 15.44956 0.070645 0.407752 -0.916087
2004-11-23 07:16:46 51°13.616 2°56.059 15.448531 0.070645 0.407752 -0.882377
2004-11-23 07:17:45 51°13.618 2°56.059 15.447314 0.070645 0.407738 -0.882377
2004-11-23 07:18:46 51°13.618 2°56.06 15.451431 0.070645 0.407717 -0.882377
2004-11-23 07:19:45 51°13.619 2°56.06 15.459803 0.070645 0.407717 -0.916087
2004-11-23 07:20:46 51°13.619 2°56.06 15.462936 0.070645 0.407703 -0.882377
2004-11-23 07:21:46 51°13.619 2°56.06 15.465836 0.070645 0.407696 -0.882377
2004-11-23 07:22:45 51°13.618 2°56.06 15.466911 0.070645 0.407675 -0.882377
2004-11-23 07:23:45 51°13.618 2°56.06 15.4714 0.070645 0.407668 -0.916087
2004-11-23 07:24:45 51°13.618 2°56.06 15.469764 0.070645 0.407654 -0.882377
2004-11-23 07:25:46 51°13.62 2°56.063 15.4714 0.070645 0.40764 -0.882377
2004-11-23 07:26:45 51°13.622 2°56.061 15.478975 0.070645 0.407625 -0.882377
2004-11-23 07:27:45 51°13.62 2°56.061 15.478227 0.070645 0.407618 -0.882377
2004-11-23 07:28:46 51°13.619 2°56.061 15.483604 0.070645 0.407597 -0.882377
2004-11-23 07:29:46 51°13.617 2°56.061 15.484259 0.070645 0.40759 -0.882377
2004-11-23 07:30:57 51°13.617 2°56.061 15.49043 0.070645 0.407569 -0.882377
2004-11-23 07:32:25 51°13.618 2°56.061 15.500433 0.070645 0.407555 -0.882377
2004-11-23 07:33:25 51°13.621 2°56.061 15.500573 0.070645 0.407541 -0.882377
2004-11-23 07:34:26 51°13.62 2°56.06 15.505948 0.070645 0.40752 -0.882377
2004-11-23 07:35:24 51°13.62 2°56.06 15.515623 0.070645 0.407513 -0.882377
2004-11-23 07:36:36 51°13.618 2°56.06 15.522912 0.070645 0.407498 -0.848668
2004-11-23 07:37:36 51°13.619 2°56.06 15.529314 0.070645 0.407484 -0.882377
2004-11-23 07:38:43 51°13.617 2°56.06 15.534967 0.070645 0.407463 -0.916087
2004-11-23 07:39:52 51°13.617 2°56.059 15.539825 0.070749 0.408077 -0.916087
2004-11-23 07:41:00 51°13.617 2°56.06 15.531509 0.070749 0.408063 -0.848668
2004-11-23 07:42:14 51°13.618 2°56.061 15.542908 0.070749 0.408048 -0.882377
2004-11-23 07:43:26 51°13.618 2°56.061 15.553325 0.070749 0.408034 -0.882377
2004-11-23 07:44:28 51°13.618 2°56.061 15.561638 0.070749 0.40802 -0.916087
2004-11-23 07:45:31 51°13.617 2°56.061 15.562058 0.070749 0.407999 -0.882377
2004-11-23 07:46:42 51°13.618 2°56.061 15.570931 0.070749 0.407985 -0.882377
2004-11-23 07:47:50 51°13.619 2°56.061 15.580363 0.070749 0.407971 -0.882377
2004-11-23 07:49:16 51°13.618 2°56.061 15.591007 0.070749 0.40795 -0.848668
2004-11-23 07:50:33 51°13.618 2°56.061 15.592781 0.070749 0.407936 -0.882377
2004-11-23 07:51:46 51°13.618 2°56.06 15.602256 0.070749 0.407921 -0.882377
2004-11-23 07:52:46 51°13.617 2°56.06 15.608417 0.070749 0.407907 -0.882377
2004-11-23 07:53:45 51°13.617 2°56.06 15.61607 0.070749 0.407893 -0.882377
2004-11-23 07:54:46 51°13.616 2°56.06 15.624796 0.070749 0.407879 -0.848668
2004-11-23 07:56:00 51°13.616 2°56.06 15.63436 0.070749 0.407858 -0.916087
2004-11-23 07:57:02 51°13.617 2°56.061 15.64355 0.070749 0.407844 -0.916087
2004-11-23 07:58:16 51°13.617 2°56.06 15.65633 0.070749 0.40783 -0.848668
2004-11-23 07:59:13 51°13.618 2°56.061 15.660854 0.070749 0.407809 -0.882377
2004-11-23 08:00:24 51°13.618 2°56.061 15.67046 0.070749 0.407795 -0.882377
2004-11-23 08:01:54 51°13.618 2°56.061 15.680205 0.070749 0.407773 -0.882377
2004-11-23 08:03:08 51°13.618 2°56.06 15.686685 0.070749 0.407759 -0.882377
2004-11-23 08:04:05 51°13.619 2°56.061 15.695355 0.070749 0.407738 -0.882377
2004-11-23 08:05:28 51°13.62 2°56.06 15.70477 0.070749 0.407717 -0.848668
2004-11-23 08:06:28 51°13.62 2°56.06 15.71204 0.070749 0.407703 -0.882377
2004-11-23 08:07:27 51°13.62 2°56.06 15.721313 0.070749 0.407682 -0.882377
2004-11-23 08:08:49 51°13.619 2°56.061 15.735151 0.070749 0.407668 -0.882377
2004-11-23 08:10:41 51°13.618 2°56.061 15.807879 0.070749 0.407647 -0.882377
2004-11-23 08:11:50 51°13.617 2°56.062 15.307076 0.070749 0.407625 -0.882377
2004-11-23 08:12:55 51°13.617 2°56.062 15.458213 0.070749 0.407611 -0.882377
2004-11-23 08:14:10 51°13.619 2°56.048 15.43618 0.070749 0.407583 -0.882377
2004-11-23 08:15:17 51°13.63 2°55.994 15.560517 0.070749 0.407562 -0.882377
2004-11-23 08:16:39 51°13.598 2°56.061 15.505761 0.070749 0.407555 -0.882377
2004-11-23 08:18:09 51°13.54 2°56.175 15.600202 0.070853 0.408168 -0.882377
2004-11-23 08:19:34 51°13.534 2°56.21 15.5911 0.070853 0.408104 -0.916087
2004-11-23 08:20:52 51°13.543 2°56.216 15.572332 0.070853 0.408104 -0.882377
2004-11-23 08:22:01 51°13.544 2°56.21 15.60795 0.070853 0.408111 -0.848668
2004-11-23 08:23:09 51°13.558 2°56.137 15.614204 0.070853 0.408062 -0.882377
2004-11-23 08:24:29 51°13.583 2°56.061 15.641638 0.070853 0.408062 -0.882377
2004-11-23 08:25:49 51°13.65 2°55.916 15.649521 0.070853 0.408013 -0.882377
2004-11-23 08:26:59 51°13.743 2°55.733 15.660108 0.070853 0.407992 -0.882377
2004-11-23 08:27:59 51°13.853 2°55.615 15.695029 0.070853 0.407978 -0.882377
2004-11-23 08:29:23 51°14.023 2°55.494 15.713532 0.070853 0.407963 -0.848668
2004-11-23 08:30:37 51°14.181 2°55.374 15.755738 0.070853 0.407956 -0.882377
2004-11-23 08:32:11 51°14.367 2°55.058 15.756763 0.070853 0.407935 -0.882377
2004-11-23 08:33:42 51°14.626 2°54.818 15.82612 0.070853 0.407956 -0.848668
2004-11-23 08:35:24 51°14.954 2°54.551 15.869793 0.070853 0.407921 -0.882377
2004-11-23 08:36:33 51°15.175 2°54.367 15.923987 0.070853 0.407928 -0.916087
2004-11-23 08:37:38 51°15.381 2°54.185 15.948653 0.070853 0.407921 -0.882377
2004-11-23 08:38:45 51°15.595 2°54.008 15.984545 0.070853 0.407914 -0.882377
2004-11-23 08:39:45 51°15.786 2°53.844 16.000512 0.070853 0.407914 -0.916087
2004-11-23 08:41:25 51°16.104 2°53.58 16.052889 0.070853 0.407914 -0.848668
2004-11-23 08:42:27 51°16.301 2°53.413 16.082238 0.070853 0.407893 -0.882377
2004-11-23 08:43:57 51°16.587 2°53.174 16.119777 0.070853 0.407914 -0.882377
2004-11-23 08:45:07 51°16.809 2°52.986 16.154516 0.070853 0.4079 -0.882377
2004-11-23 08:46:09 51°17.004 2°52.818 16.185397 0.070853 0.407907 -0.882377
2004-11-23 08:47:21 51°17.233 2°52.629 16.225425 0.070853 0.407921 -0.882377
2004-11-23 08:48:23 51°17.396 2°52.402 16.252853 0.070853 0.4079 -0.882377
2004-11-23 08:49:27 51°17.535 2°52.12 16.290808 0.070853 0.407886 -0.916087
2004-11-23 08:50:43 51°17.698 2°51.785 16.325372 0.070853 0.407893 -0.882377
2004-11-23 08:51:57 51°17.857 2°51.457 16.361765 0.070853 0.4079 -0.916087
2004-11-23 08:52:55 51°17.981 2°51.198 16.388401 0.070853 0.407886 -0.882377
2004-11-23 08:54:13 51°18.15 2°50.848 16.422455 0.070853 0.407893 -0.882377
2004-11-23 08:55:17 51°18.283 2°50.555 16.450959 0.070853 0.407907 -0.882377
2004-11-23 08:56:47 51°18.475 2°50.14 16.490421 0.070853 0.407914 -0.916087
2004-11-23 08:58:21 51°18.677 2°49.713 16.531336 0.070853 0.407914 -0.882377
2004-11-23 08:59:42 51°18.839 2°49.341 16.570707 0.070853 0.407907 -0.882377
2004-11-23 09:00:41 51°18.956 2°49.067 16.595792 0.070853 0.407907 -0.882377
2004-11-23 09:01:42 51°19.073 2°48.785 16.624088 0.070853 0.407928 -0.916087
2004-11-23 09:03:25 51°19.272 2°48.306 16.668373 0.070853 0.407928 -0.882377
2004-11-23 09:04:29 51°19.395 2°48.002 16.697468 0.070853 0.407963 -0.916087
2004-11-23 09:05:36 51°19.522 2°47.679 16.724345 0.070853 0.407956 -0.882377
2004-11-23 09:06:35 51°19.636 2°47.396 16.749376 0.070853 0.407963 -0.882377
2004-11-23 09:07:50 51°19.782 2°47.042 16.779263 0.070853 0.407985 -0.882377
2004-11-23 09:08:49 51°19.866 2°46.742 16.804549 0.070853 0.407992 -0.916087
2004-11-23 09:09:55 51°19.929 2°46.397 16.833633 0.070853 0.407985 -0.882377
2004-11-23 09:10:55 51°19.958 2°46.077 16.858992 0.070853 0.407999 -0.882377
2004-11-23 09:12:03 51°19.994 2°45.712 16.88842 0.070853 0.407999 -0.916087
2004-11-23 09:13:03 51°20.029 2°45.39 16.915363 0.070853 0.407992 -0.882377
2004-11-23 09:14:17 51°20.076 2°44.986 16.944905 0.070853 0.408034 -0.916087
2004-11-23 09:15:19 51°20.115 2°44.648 16.969538 0.070853 0.408034 -0.916087
2004-11-23 09:16:29 51°20.16 2°44.265 17.000018 0.070853 0.408048 -0.882377
2004-11-23 09:17:29 51°20.197 2°43.938 17.027238 0.070853 0.408069 -0.882377
2004-11-23 09:18:55 51°20.252 2°43.466 17.060986 0.070853 0.408076 -0.882377
2004-11-23 09:20:03 51°20.299 2°43.098 17.091565 0.070853 0.408104 -0.848668
2004-11-23 09:21:09 51°20.343 2°42.743 17.118567 0.070853 0.408097 -0.882377
2004-11-23 09:22:09 51°20.366 2°42.42 17.142956 0.070853 0.408104 -0.882377
2004-11-23 09:23:15 51°20.393 2°42.065 17.171308 0.070853 0.408133 -0.882377
2004-11-23 09:25:03 51°20.442 2°41.492 17.216803 0.070853 0.408154 -0.882377
2004-11-23 09:26:09 51°20.475 2°41.141 17.244442 0.070853 0.408175 -0.882377
2004-11-23 09:27:31 51°20.517 2°40.699 17.275306 0.070853 0.408196 -0.882377
2004-11-23 09:28:32 51°20.548 2°40.369 17.300872 0.070853 0.408189 -0.882377
2004-11-23 09:29:54 51°20.588 2°39.923 17.33531 0.070853 0.40821 -0.916087
2004-11-23 09:31:04 51°20.623 2°39.546 17.365315 0.070853 0.408231 -0.882377
2004-11-23 09:33:07 51°20.688 2°38.884 17.415144 0.070853 0.408259 -0.882377
2004-11-23 09:34:19 51°20.725 2°38.501 17.442205 0.070749 0.407675 -0.916087
2004-11-23 09:35:39 51°20.767 2°38.077 17.477075 0.070749 0.407696 -0.882377
2004-11-23 09:36:37 51°20.798 2°37.771 17.501159 0.070749 0.40771 -0.882377
2004-11-23 09:38:00 51°20.845 2°37.332 17.534455 0.070749 0.407738 -0.882377
2004-11-23 09:39:26 51°20.893 2°36.88 17.569552 0.070749 0.407745 -0.882377
2004-11-23 09:40:27 51°20.927 2°36.562 17.592879 0.070749 0.407759 -0.882377
2004-11-23 09:41:33 51°20.966 2°36.215 17.619827 0.070749 0.40778 -0.882377
2004-11-23 09:42:58 51°21.019 2°35.766 17.652025 0.070749 0.407802 -0.882377
2004-11-23 09:45:02 51°21.123 2°35.112 17.700068 0.070749 0.40783 -0.916087
2004-11-23 09:46:04 51°21.182 2°34.787 17.726116 0.070749 0.407858 -0.882377
2004-11-23 09:47:17 51°21.251 2°34.407 17.753014 0.070749 0.407851 -0.916087
2004-11-23 09:48:29 51°21.318 2°34.03 17.781667 0.070749 0.407872 -0.882377
2004-11-23 09:50:05 51°21.405 2°33.525 17.818768 0.070749 0.4079 -0.882377
2004-11-23 09:51:05 51°21.458 2°33.208 17.843008 0.070749 0.407907 -0.882377
2004-11-23 09:52:28 51°21.584 2°32.818 17.877546 0.070749 0.407957 -0.916087
2004-11-23 09:53:51 51°21.888 2°32.872 17.911254 0.070749 0.407978 -0.882377
2004-11-23 09:54:57 51°22.119 2°33.061 17.935734 0.070749 0.407978 -0.916087
2004-11-23 09:55:57 51°22.33 2°33.24 17.955962 0.070749 0.407978 -0.916087
2004-11-23 09:57:27 51°22.66 2°33.367 17.989949 0.070749 0.408077 -0.882377
2004-11-23 09:58:27 51°22.823 2°33.171 18.010162 0.070749 0.408048 -0.916087
2004-11-23 09:59:25 51°22.885 2°32.87 18.032714 0.070749 0.408034 -0.882377
2004-11-23 10:00:40 51°22.88 2°32.471 18.057333 0.070749 0.408063 -0.916087
2004-11-23 10:02:08 51°22.86 2°32.005 18.090821 0.070749 0.408133 -0.882377
2004-11-23 10:03:25 51°22.855 2°31.596 18.123528 0.070749 0.408098 -0.848668
2004-11-23 10:05:23 51°22.849 2°30.969 18.168779 0.070645 0.407527 -0.882377
2004-11-23 10:07:15 51°22.841 2°30.372 18.208243 0.070645 0.407541 -0.882377
2004-11-23 10:08:17 51°22.838 2°30.038 18.229474 0.070645 0.407548 -0.916087
2004-11-23 10:09:16 51°22.837 2°29.72 18.25452 0.070645 0.407541 -0.882377
2004-11-23 10:10:16 51°22.82 2°29.401 18.274748 0.070645 0.407569 -0.882377
2004-11-23 10:11:28 51°22.792 2°29.019 18.300092 0.070645 0.40759 -0.882377
2004-11-23 10:12:59 51°22.752 2°28.532 18.333961 0.070645 0.407682 -0.882377
2004-11-23 10:14:17 51°22.717 2°28.113 18.36503 0.070645 0.40771 -0.916087
2004-11-23 10:15:55 51°22.672 2°27.593 18.398868 0.070645 0.407795 -0.882377
2004-11-23 10:16:53 51°22.647 2°27.286 18.420446 0.070645 0.407851 -0.882377
2004-11-23 10:18:15 51°22.616 2°26.849 18.449325 0.070645 0.407894 -0.882377
2004-11-23 10:19:16 51°22.611 2°26.519 18.47295 0.070645 0.407936 -0.882377
2004-11-23 10:20:29 51°22.614 2°26.13 18.497015 0.070645 0.407993 -0.882377
2004-11-23 10:21:35 51°22.653 2°25.783 18.525371 0.070541 0.407407 -0.916087
2004-11-23 10:23:09 51°22.717 2°25.287 18.565042 0.070541 0.407491 -0.882377
2004-11-23 10:24:58 51°22.804 2°24.709 18.600441 0.070541 0.407661 -0.882377
2004-11-23 10:26:33 51°22.882 2°24.203 18.631708 0.070541 0.407802 -0.882377
2004-11-23 10:27:34 51°22.932 2°23.879 18.660816 0.070541 0.407866 -0.916087
2004-11-23 10:28:47 51°22.991 2°23.49 18.685086 0.070437 0.407322 -0.882377
2004-11-23 10:30:37 51°23.077 2°22.898 18.722971 0.070437 0.40747 -0.916087
2004-11-23 10:31:40 51°23.127 2°22.559 18.749095 0.070437 0.407534 -0.882377
2004-11-23 10:33:27 51°23.214 2°21.986 18.785876 0.070333 0.407131 -0.882377
2004-11-23 10:34:49 51°23.284 2°21.549 18.816661 0.070333 0.40728 -0.882377
2004-11-23 10:35:49 51°23.351 2°21.236 18.836598 0.070333 0.407435 -0.882377
2004-11-23 10:37:17 51°23.477 2°20.785 18.872041 0.070333 0.407556 -0.882377
2004-11-23 10:38:19 51°23.585 2°20.48 18.891383 0.070229 0.407088 -0.882377
2004-11-23 10:40:09 51°23.837 2°19.998 18.934994 0.070229 0.407351 -0.882377
2004-11-23 10:41:43 51°24.127 2°19.71 18.970211 0.070229 0.407571 -0.882377
2004-11-23 10:42:50 51°24.366 2°19.586 18.992864 0.070125 0.407096 -0.882377
2004-11-23 10:43:50 51°24.587 2°19.478 19.013863 0.070125 0.407238 -0.882377
2004-11-23 10:45:17 51°24.906 2°19.313 19.041839 0.070125 0.407366 -0.882377
2004-11-23 10:46:18 51°25.13 2°19.197 19.065269 0.070125 0.407444 -0.882377
2004-11-23 10:47:19 51°25.353 2°19.081 19.083403 0.070021 0.406912 -0.882377
2004-11-23 10:48:43 51°25.663 2°18.925 19.116282 0.070021 0.40704 -0.882377
2004-11-23 10:49:46 51°25.894 2°18.805 19.141775 0.070021 0.407132 -0.882377
2004-11-23 10:51:04 51°26.18 2°18.646 19.16828 0.070021 0.407317 -0.882377
2004-11-23 10:52:33 51°26.508 2°18.467 19.199612 0.070021 0.407431 -0.882377
2004-11-23 10:53:58 51°26.822 2°18.3 19.230753 0.069917 0.406919 -0.882377
2004-11-23 10:54:59 51°27.047 2°18.18 19.25022 0.069917 0.406991 -0.882377
2004-11-23 10:56:23 51°27.359 2°18.03 19.276996 0.069917 0.407119 -0.848668
2004-11-23 10:57:50 51°27.683 2°17.879 19.312888 0.069917 0.407276 -0.916087
2004-11-23 10:59:07 51°27.972 2°17.75 19.336407 0.069917 0.407412 -0.848668
2004-11-23 11:00:20 51°28.246 2°17.623 19.358414 0.069917 0.407576 -0.882377
2004-11-23 11:01:37 51°28.532 2°17.487 19.38745 0.069917 0.407726 -0.882377
2004-11-23 11:02:37 51°28.755 2°17.38 19.409884 0.069917 0.407826 -0.882377
2004-11-23 11:03:37 51°28.977 2°17.271 19.43116 0.070021 0.408562 -0.882377
2004-11-23 11:04:35 51°29.19 2°17.159 19.449291 0.070021 0.408691 -0.882377
2004-11-23 11:05:36 51°29.417 2°17.048 19.471086 0.070021 0.408835 -0.882377
2004-11-23 11:06:37 51°29.645 2°16.942 19.486512 0.070021 0.408943 -0.848668
2004-11-23 11:07:37 51°29.866 2°16.838 19.50834 0.070021 0.409007 -0.882377
2004-11-23 11:08:40 51°30.102 2°16.729 19.529897 0.070021 0.409065 -0.882377
2004-11-23 11:09:51 51°30.369 2°16.605 19.553831 0.070021 0.40913 -0.882377
2004-11-23 11:11:09 51°30.661 2°16.468 19.578111 0.070021 0.409209 -0.882377
2004-11-23 11:12:07 51°30.876 2°16.366 19.600485 0.070021 0.409267 -0.882377
2004-11-23 11:13:09 51°31.104 2°16.255 19.62197 0.070021 0.409346 -0.882377
2004-11-23 11:14:09 51°31.327 2°16.143 19.637892 0.070125 0.410055 -0.882377
2004-11-23 11:15:09 51°31.549 2°16.036 19.65919 0.070125 0.41017 -0.882377
2004-11-23 11:16:27 51°31.837 2°15.897 19.683434 0.070125 0.410344 -0.882377
2004-11-23 11:17:34 51°32.088 2°15.776 19.702736 0.070125 0.410488 -0.882377
2004-11-23 11:18:40 51°32.336 2°15.658 19.723001 0.070125 0.410655 -0.882377
2004-11-23 11:19:49 51°32.596 2°15.535 19.747048 0.070125 0.410778 -0.882377
2004-11-23 11:20:49 51°32.822 2°15.426 19.763295 0.070229 0.41154 -0.882377
2004-11-23 11:21:49 51°33.048 2°15.316 19.78504 0.070229 0.411663 -0.848668
2004-11-23 11:22:59 51°33.31 2°15.18 19.800398 0.070229 0.411867 -0.882377
2004-11-23 11:24:13 51°33.594 2°15.098 19.829654 0.070229 0.412013 -0.848668
2004-11-23 11:25:13 51°33.808 2°15.261 19.843332 0.070229 0.412173 -0.916087
2004-11-23 11:26:12 51°34 2°15.488 19.856128 0.070333 0.412959 -0.882377
2004-11-23 11:27:11 51°34.186 2°15.73 19.877361 0.070333 0.41301 -0.882377
2004-11-23 11:28:17 51°34.391 2°16.013 19.900917 0.070333 0.413112 -0.916087
2004-11-23 11:29:21 51°34.586 2°16.289 19.912341 0.070437 0.413833 -0.916087
2004-11-23 11:30:21 51°34.77 2°16.552 19.925652 0.070437 0.413891 -0.882377
2004-11-23 11:31:22 51°34.955 2°16.819 19.944669 0.070437 0.414001 -0.882377
2004-11-23 11:32:43 51°35.205 2°17.171 19.970355 0.070541 0.414752 -0.916087
2004-11-23 11:33:43 51°35.382 2°17.43 19.990063 0.070541 0.414833 -0.882377
2004-11-23 11:35:03 51°35.625 2°17.778 20.006387 0.070541 0.414906 -0.916087
2004-11-23 11:36:11 51°35.831 2°18.074 20.023585 0.070541 0.415024 -0.882377
2004-11-23 11:37:13 51°36.018 2°18.341 20.041743 0.070541 0.415046 -0.882377
2004-11-23 11:38:11 51°36.194 2°18.591 20.056652 0.070541 0.415105 -0.882377
2004-11-23 11:39:13 51°36.381 2°18.861 20.073444 0.070645 0.415769 -0.882377
2004-11-23 11:40:12 51°36.558 2°19.115 20.086506 0.070645 0.415865 -0.882377
2004-11-23 11:41:19 51°36.767 2°19.39 20.105175 0.070645 0.415879 -0.848668
2004-11-23 11:42:21 51°36.961 2°19.647 20.116741 0.070645 0.415924 -0.882377
2004-11-23 11:43:42 51°37.216 2°19.992 20.133475 0.070645 0.415975 -0.882377
2004-11-23 11:45:02 51°37.467 2°20.331 20.153708 0.070645 0.415998 -0.882377
2004-11-23 11:46:03 51°37.658 2°20.589 20.173629 0.070645 0.415998 -0.882377
2004-11-23 11:47:12 51°37.872 2°20.881 20.186979 0.070645 0.416064 -0.882377
2004-11-23 11:48:17 51°38.075 2°21.157 20.198971 0.070645 0.416101 -0.882377
2004-11-23 11:49:17 51°38.264 2°21.414 20.220017 0.070645 0.416101 -0.848668
2004-11-23 11:50:24 51°38.475 2°21.702 20.231259 0.070645 0.416116 -0.882377
2004-11-23 11:51:31 51°38.685 2°21.991 20.250809 0.070645 0.416146 -0.882377
2004-11-23 11:52:30 51°38.869 2°22.246 20.270091 0.070645 0.416205 -0.916087
2004-11-23 11:53:43 51°39.099 2°22.56 20.283598 0.070645 0.416257 -0.882377
2004-11-23 11:54:57 51°39.336 2°22.879 20.30344 0.070645 0.416286 -0.882377
2004-11-23 11:55:58 51°39.527 2°23.145 20.321485 0.070645 0.416309 -0.882377
2004-11-23 11:57:01 51°39.723 2°23.419 20.325286 0.070749 0.41698 -0.882377
2004-11-23 11:58:01 51°39.906 2°23.69 20.341011 0.070645 0.416338 -0.882377
2004-11-23 11:59:01 51°40.086 2°23.964 20.354025 0.070645 0.416323 -0.882377
2004-11-23 12:00:17 51°40.316 2°24.314 20.377819 0.070645 0.416301 -0.882377
2004-11-23 12:01:23 51°40.516 2°24.616 20.393533 0.070645 0.416323 -0.882377
2004-11-23 12:02:21 51°40.691 2°24.881 20.407628 0.070749 0.417032 -0.882377
2004-11-23 12:03:49 51°40.938 2°25.306 20.419365 0.070645 0.416405 -0.848668
2004-11-23 12:04:57 51°41.104 2°25.666 20.435288 0.070645 0.416427 -0.882377
2004-11-23 12:06:09 51°41.273 2°26.056 20.456048 0.070749 0.417054 -0.882377
2004-11-23 12:07:27 51°41.439 2°26.498 20.464594 0.070645 0.416464 -0.882377
2004-11-23 12:08:28 51°41.606 2°26.8 20.488353 0.070645 0.416457 -0.882377
2004-11-23 12:09:54 51°41.844 2°27.222 20.50487 0.070645 0.416501 -0.882377
2004-11-23 12:10:57 51°42.013 2°27.534 20.526089 0.070645 0.416546 -0.916087
2004-11-23 12:12:23 51°42.253 2°27.958 20.540377 0.070645 0.416657 -0.916087
2004-11-23 12:13:23 51°42.387 2°28.285 20.551352 0.070645 0.416776 -0.882377
2004-11-23 12:14:27 51°42.444 2°28.685 20.568552 0.070645 0.416835 -0.848668
2004-11-23 12:15:33 51°42.472 2°29.101 20.588403 0.070645 0.41691 -0.882377
2004-11-23 12:16:35 51°42.5 2°29.495 20.600807 0.070645 0.416991 -0.916087
2004-11-23 12:17:33 51°42.519 2°29.862 20.610729 0.070645 0.417066 -0.882377
2004-11-23 12:18:35 51°42.537 2°30.253 20.62848 0.070645 0.41711 -0.882377
2004-11-23 12:19:33 51°42.556 2°30.618 20.646749 0.070645 0.417185 -0.848668
2004-11-23 12:20:42 51°42.578 2°31.052 20.639312 0.070645 0.417252 -0.882377
2004-11-23 12:21:40 51°42.595 2°31.414 20.660622 0.070645 0.417267 -0.916087
2004-11-23 12:22:43 51°42.597 2°31.807 20.665536 0.070645 0.417311 -0.882377
2004-11-23 12:23:51 51°42.591 2°32.235 20.680796 0.070645 0.417364 -0.882377
2004-11-23 12:24:51 51°42.59 2°32.613 20.686925 0.070645 0.417446 -0.882377
2004-11-23 12:25:58 51°42.582 2°33.032 20.715522 0.070645 0.417468 -0.882377
2004-11-23 12:26:55 51°42.55 2°33.38 20.720735 0.070645 0.417535 -0.882377
2004-11-23 12:27:57 51°42.497 2°33.749 20.756267 0.070645 0.41749 -0.882377
2004-11-23 12:28:57 51°42.414 2°34.081 20.749753 0.070645 0.417543 -0.882377
2004-11-23 12:30:07 51°42.316 2°34.469 20.766732 0.070645 0.417535 -0.882377
2004-11-23 12:31:27 51°42.208 2°34.917 20.773202 0.070645 0.417572 -0.882377
2004-11-23 12:32:34 51°42.124 2°35.297 20.793084 0.070645 0.41758 -0.916087
2004-11-23 12:33:34 51°42.043 2°35.634 20.804021 0.070645 0.417632 -0.916087
2004-11-23 12:34:31 51°41.968 2°35.954 20.801851 0.070645 0.417684 -0.882377
2004-11-23 12:35:44 51°41.875 2°36.364 20.81474 0.070541 0.417092 -0.882377
2004-11-23 12:36:44 51°41.793 2°36.705 20.837387 0.070541 0.417107 -0.848668
2004-11-23 12:37:45 51°41.693 2°37.033 20.853739 0.070541 0.41713 -0.916087
2004-11-23 12:38:44 51°41.59 2°37.345 20.863626 0.070541 0.417137 -0.882377
2004-11-23 12:39:45 51°41.488 2°37.674 20.872298 0.070541 0.417152 -0.916087
2004-11-23 12:40:43 51°41.392 2°37.982 20.867919 0.070541 0.417182 -0.916087
2004-11-23 12:41:44 51°41.284 2°38.299 20.885782 0.070541 0.417212 -0.882377
2004-11-23 12:42:43 51°41.182 2°38.606 20.920323 0.070541 0.417212 -0.848668
2004-11-23 12:43:44 51°41.075 2°38.925 20.90806 0.070541 0.417257 -0.882377
2004-11-23 12:44:59 51°40.939 2°39.312 20.93644 0.070541 0.417271 -0.916087
2004-11-23 12:46:13 51°40.799 2°39.685 20.952337 0.070541 0.417294 -0.882377
2004-11-23 12:47:13 51°40.681 2°39.986 20.974551 0.070541 0.417331 -0.882377
2004-11-23 12:48:12 51°40.553 2°40.264 20.981305 0.070437 0.416694 -0.916087
2004-11-23 12:49:35 51°40.375 2°40.657 20.982474 0.070437 0.416709 -0.882377
2004-11-23 12:50:36 51°40.244 2°40.947 20.985591 0.070437 0.416776 -0.916087
2004-11-23 12:51:37 51°40.11 2°41.235 21.003079 0.070437 0.416761 -0.916087
2004-11-23 12:52:36 51°39.98 2°41.512 21.035488 0.070437 0.416776 -0.882377
2004-11-23 12:53:34 51°39.853 2°41.783 21.019567 0.070437 0.416769 -0.916087
2004-11-23 12:54:41 51°39.704 2°42.088 21.034796 0.070437 0.416784 -0.882377
2004-11-23 12:56:13 51°39.445 2°42.413 21.046779 0.070437 0.416791 -0.882377
2004-11-23 12:57:13 51°39.249 2°42.512 21.055991 0.070437 0.416821 -0.882377
2004-11-23 12:58:13 51°39.046 2°42.487 21.068273 0.070437 0.416873 -0.882377
2004-11-23 12:59:23 51°38.831 2°42.311 21.08332 0.070333 0.416251 -0.916087
2004-11-23 13:00:25 51°38.658 2°42.1 21.090712 0.070333 0.416243 -0.882377
2004-11-23 13:02:19 51°38.333 2°41.738 21.102383 0.070333 0.416251 -0.882377
2004-11-23 13:03:31 51°38.132 2°41.498 21.125935 0.070333 0.416273 -0.882377
2004-11-23 13:05:07 51°37.867 2°41.169 21.140192 0.070333 0.416281 -0.882377
2004-11-23 13:06:05 51°37.702 2°40.978 21.173145 0.070229 0.415636 -0.882377
2004-11-23 13:07:24 51°37.483 2°40.72 21.168266 0.070229 0.415636 -0.916087
2004-11-23 13:08:37 51°37.28 2°40.478 21.158765 0.070229 0.415621 -0.916087
2004-11-23 13:09:39 51°37.111 2°40.275 21.177031 0.070229 0.415636 -0.882377
2004-11-23 13:11:07 51°36.868 2°39.982 21.195682 0.070229 0.415658 -0.882377
2004-11-23 13:12:19 51°36.669 2°39.738 21.200084 0.070229 0.415651 -0.848668
2004-11-23 13:13:33 51°36.46 2°39.496 21.198142 0.070125 0.414999 -0.882377
2004-11-23 13:14:57 51°36.227 2°39.215 21.213248 0.070125 0.415006 -0.882377
2004-11-23 13:16:33 51°35.958 2°38.898 21.227575 0.070125 0.414984 -0.916087
2004-11-23 13:17:43 51°35.762 2°38.665 21.248541 0.070125 0.415006 -0.882377
2004-11-23 13:18:50 51°35.568 2°38.462 21.234521 0.070125 0.414999 -0.882377
2004-11-23 13:20:07 51°35.343 2°38.227 21.253372 0.070125 0.414969 -0.916087
2004-11-23 13:21:05 51°35.165 2°38.093 21.270451 0.070125 0.414991 -0.882377
2004-11-23 13:22:26 51°34.903 2°38.257 21.262861 0.070021 0.414332 -0.916087
2004-11-23 13:23:26 51°34.715 2°38.418 21.277609 0.070021 0.414354 -0.882377
2004-11-23 13:24:49 51°34.519 2°38.763 21.305975 0.070021 0.414332 -0.882377
2004-11-23 13:25:58 51°34.388 2°39.105 21.289681 0.070021 0.414332 -0.882377
2004-11-23 13:26:59 51°34.272 2°39.408 21.296104 0.070021 0.414362 -0.882377
2004-11-23 13:28:11 51°34.134 2°39.761 21.284464 0.070021 0.414362 -0.882377
2004-11-23 13:29:37 51°33.969 2°40.178 21.304768 0.070021 0.414347 -0.916087
2004-11-23 13:30:39 51°33.827 2°40.444 21.312871 0.070021 0.414391 -0.882377
2004-11-23 13:32:21 51°33.476 2°40.479 21.328643 0.069918 0.413725 -0.882377
2004-11-23 13:33:49 51°33.17 2°40.409 21.318085 0.069918 0.413762 -0.916087
2004-11-23 13:35:13 51°32.882 2°40.312 21.3367 0.069918 0.413747 -0.916087
2004-11-23 13:36:13 51°32.678 2°40.24 21.348461 0.069918 0.413739 -0.882377
2004-11-23 13:37:48 51°32.353 2°40.124 21.349236 0.069918 0.413732 -0.916087
2004-11-23 13:39:09 51°32.073 2°40.025 21.35251 0.069918 0.413747 -0.882377
2004-11-23 13:40:10 51°31.865 2°39.949 21.347987 0.069918 0.413754 -0.882377
2004-11-23 13:41:17 51°31.638 2°39.867 21.363277 0.069918 0.413717 -0.882377
2004-11-23 13:42:29 51°31.396 2°39.771 21.38033 0.069918 0.413717 -0.848668
2004-11-23 13:43:37 51°31.164 2°39.683 21.35686 0.069918 0.41371 -0.882377
2004-11-23 13:45:02 51°30.873 2°39.57 21.383559 0.069814 0.413065 -0.882377
2004-11-23 13:46:53 51°30.503 2°39.373 21.380416 0.069814 0.413058 -0.882377
2004-11-23 13:48:17 51°30.273 2°39.067 21.390362 0.069814 0.413043 -0.916087
2004-11-23 13:49:31 51°30.075 2°38.789 21.392385 0.069814 0.413014 -0.949796
2004-11-23 13:51:17 51°29.797 2°38.374 21.397982 0.069814 0.412991 -0.882377
2004-11-23 13:52:25 51°29.623 2°38.099 21.430303 0.069814 0.412991 -0.882377
2004-11-23 13:53:33 51°29.452 2°37.809 21.432412 0.069814 0.412977 -0.848668
2004-11-23 13:54:35 51°29.295 2°37.544 21.413649 0.069814 0.412955 -0.882377
2004-11-23 13:55:35 51°29.143 2°37.286 21.420277 0.069814 0.412977 -0.882377
2004-11-23 13:56:42 51°28.975 2°37 21.45018 0.069814 0.412947 -0.916087
2004-11-23 13:58:09 51°28.753 2°36.633 21.442479 0.069814 0.41294 -0.916087
2004-11-23 13:59:09 51°28.566 2°36.458 21.450266 0.069814 0.41291 -0.916087
2004-11-23 14:00:11 51°28.345 2°36.404 21.476114 0.06971 0.412237 -0.916087
2004-11-23 14:01:47 51°28.002 2°36.443 21.45861 0.06971 0.412259 -0.916087
2004-11-23 14:02:53 51°27.764 2°36.513 21.476587 0.06971 0.412259 -0.882377
2004-11-23 14:03:57 51°27.539 2°36.626 21.450868 0.06971 0.412251 -0.882377
2004-11-23 14:04:57 51°27.332 2°36.735 21.45547 0.06971 0.412237 -0.882377
2004-11-23 14:06:02 51°27.106 2°36.848 21.490088 0.06971 0.412244 -0.882377
2004-11-23 14:07:03 51°26.909 2°37.005 21.453836 0.06971 0.412251 -0.916087
2004-11-23 14:08:47 51°26.573 2°37.274 21.482607 0.06971 0.412266 -0.882377
2004-11-23 14:09:47 51°26.377 2°37.427 21.463427 0.06971 0.412266 -0.916087
2004-11-23 14:10:46 51°26.186 2°37.576 21.495161 0.06971 0.412281 -0.882377
2004-11-23 14:12:14 51°25.897 2°37.793 21.485961 0.06971 0.41231 -0.882377
2004-11-23 14:13:35 51°25.631 2°37.997 21.482134 0.06971 0.412333 -0.882377
2004-11-23 14:14:35 51°25.434 2°38.142 21.485789 0.06971 0.412362 -0.882377
2004-11-23 14:15:45 51°25.203 2°38.316 21.495978 0.06971 0.412399 -0.916087
2004-11-23 14:16:43 51°25.011 2°38.461 21.499761 0.06971 0.412421 -0.882377
2004-11-23 14:17:45 51°24.8 2°38.603 21.477705 0.06971 0.412458 -0.882377
2004-11-23 14:18:45 51°24.592 2°38.712 21.51416 0.06971 0.412473 -0.882377
2004-11-23 14:19:45 51°24.383 2°38.826 21.486864 0.06971 0.412495 -0.882377
2004-11-23 14:20:55 51°24.139 2°38.958 21.49817 0.06971 0.412532 -0.882377
2004-11-23 14:21:55 51°23.927 2°39.069 21.482521 0.06971 0.412561 -0.916087
2004-11-23 14:22:55 51°23.717 2°39.176 21.493957 0.06971 0.412569 -0.916087
2004-11-23 14:24:22 51°23.41 2°39.324 21.470352 0.069606 0.411968 -0.882377
2004-11-23 14:25:22 51°23.198 2°39.422 21.484069 0.069606 0.411976 -0.882377
2004-11-23 14:26:33 51°22.941 2°39.51 21.474738 0.069606 0.411998 -0.882377
2004-11-23 14:27:41 51°22.698 2°39.588 21.483123 0.069606 0.411998 -0.916087
2004-11-23 14:29:06 51°22.388 2°39.691 21.49069 0.069606 0.412042 -0.882377
2004-11-23 14:30:41 51°22.042 2°39.804 21.485015 0.069606 0.412101 -0.882377
2004-11-23 14:31:41 51°21.825 2°39.879 21.461793 0.069606 0.412138 -0.916087
2004-11-23 14:32:41 51°21.609 2°39.95 21.484327 0.069606 0.41216 -0.916087
2004-11-23 14:33:41 51°21.389 2°40.022 21.49529 0.069606 0.412219 -0.882377
2004-11-23 14:35:27 51°21.001 2°40.151 21.485402 0.069606 0.412286 -0.882377
2004-11-23 14:36:25 51°20.792 2°40.223 21.456331 0.069606 0.41233 -0.882377
2004-11-23 14:37:27 51°20.63 2°40.446 21.458739 0.069606 0.412411 -0.882377
2004-11-23 14:38:27 51°20.513 2°40.729 21.489787 0.069606 0.412441 -0.882377
2004-11-23 14:39:27 51°20.397 2°41.016 21.452804 0.069606 0.412515 -0.916087
2004-11-23 14:40:27 51°20.295 2°41.318 21.501309 0.069606 0.41253 -0.882377
2004-11-23 14:41:45 51°20.178 2°41.723 21.463255 0.069606 0.412611 -0.882377
2004-11-23 14:42:45 51°20.091 2°42.038 21.474566 0.069606 0.412626 -0.882377
2004-11-23 14:43:53 51°19.989 2°42.388 21.48652 0.069502 0.412003 -0.882377
2004-11-23 14:45:42 51°19.842 2°42.973 21.414166 0.069502 0.412121 -0.916087
2004-11-23 14:46:43 51°19.76 2°43.301 21.470438 0.069502 0.412143 -0.882377
2004-11-23 14:47:53 51°19.669 2°43.68 21.445017 0.069502 0.41218 -0.882377
2004-11-23 14:48:53 51°19.59 2°44.001 21.463643 0.069502 0.412187 -0.882377
2004-11-23 14:49:57 51°19.504 2°44.335 21.446824 0.069502 0.412232 -0.882377
2004-11-23 14:50:57 51°19.424 2°44.654 21.441963 0.069502 0.412254 -0.882377
2004-11-23 14:51:59 51°19.339 2°44.976 21.445663 0.069502 0.412269 -0.882377
2004-11-23 14:52:59 51°19.262 2°45.286 21.409474 0.069502 0.412313 -0.916087
2004-11-23 14:54:07 51°19.17 2°45.645 21.382268 0.069502 0.412372 -0.882377
2004-11-23 14:55:07 51°19.083 2°45.958 21.387693 0.069502 0.412402 -0.916087
2004-11-23 14:56:07 51°18.996 2°46.273 21.383904 0.069502 0.412439 -0.882377
2004-11-23 14:57:07 51°18.915 2°46.593 21.390276 0.069502 0.412506 -0.848668
2004-11-23 14:58:07 51°18.835 2°46.91 21.360995 0.069502 0.412558 -0.916087
2004-11-23 14:59:21 51°18.733 2°47.3 21.417738 0.069502 0.412617 -0.882377
2004-11-23 15:00:21 51°18.652 2°47.618 21.415543 0.069502 0.412662 -0.916087
2004-11-23 15:01:21 51°18.578 2°47.934 21.369953 0.069502 0.412743 -0.882377
2004-11-23 15:02:27 51°18.501 2°48.283 21.357549 0.069398 0.412185 -0.916087
2004-11-23 15:03:27 51°18.431 2°48.596 21.40078 0.069398 0.41223 -0.882377
2004-11-23 15:04:27 51°18.355 2°48.905 21.332004 0.069398 0.412319 -0.916087
2004-11-23 15:05:27 51°18.285 2°49.22 21.387305 0.069398 0.412326 -0.916087
2004-11-23 15:06:39 51°18.194 2°49.601 21.378651 0.069398 0.412378 -0.882377
2004-11-23 15:07:39 51°18.12 2°49.92 21.329117 0.069398 0.412512 -0.882377
2004-11-23 15:08:36 51°18.046 2°50.219 21.339026 0.069398 0.412549 -0.882377
2004-11-23 15:09:39 51°17.971 2°50.555 21.351174 0.069398 0.412579 -0.882377
2004-11-23 15:10:39 51°17.898 2°50.869 21.338552 0.069398 0.412638 -0.916087
2004-11-23 15:11:41 51°17.82 2°51.192 21.341439 0.069398 0.412705 -0.916087
2004-11-23 15:12:44 51°17.74 2°51.522 21.325023 0.069398 0.412802 -0.882377
2004-11-23 15:13:43 51°17.625 2°51.8 21.378134 0.069398 0.412846 -0.916087
2004-11-23 15:14:41 51°17.464 2°52.024 21.334976 0.069398 0.412936 -0.882377
2004-11-23 15:15:53 51°17.206 2°52.145 21.332736 0.069398 0.41301 -0.882377
2004-11-23 15:16:54 51°16.987 2°52.238 21.317741 0.069294 0.412436 -0.882377
2004-11-23 15:17:53 51°16.775 2°52.329 21.309897 0.069398 0.413114 -0.916087
2004-11-23 15:19:03 51°16.52 2°52.443 21.287827 0.069294 0.412533 -0.882377
2004-11-23 15:20:03 51°16.299 2°52.541 21.309035 0.069294 0.41254 -0.882377
2004-11-23 15:21:11 51°16.053 2°52.659 21.269459 0.069294 0.412593 -0.916087
2004-11-23 15:22:09 51°15.843 2°52.755 21.231803 0.069294 0.412615 -0.882377
2004-11-23 15:23:15 51°15.624 2°52.937 21.292181 0.069294 0.412607 -0.882377
2004-11-23 15:24:21 51°15.433 2°53.113 21.221965 0.069294 0.41266 -0.848668
2004-11-23 15:25:33 51°15.235 2°53.311 21.255356 0.069294 0.412712 -0.916087
2004-11-23 15:26:33 51°15.095 2°53.555 21.23163 0.069294 0.412682 -0.848668
2004-11-23 15:27:33 51°14.956 2°53.812 21.288431 0.069294 0.412689 -0.882377
2004-11-23 15:28:36 51°14.814 2°54.083 21.275927 0.069294 0.412734 -0.916087
2004-11-23 15:29:52 51°14.644 2°54.416 21.256003 0.069294 0.412756 -0.882377
2004-11-23 15:31:10 51°14.484 2°54.761 21.218082 0.069294 0.412786 -0.916087
2004-11-23 15:32:25 51°14.348 2°55.101 21.241381 0.069294 0.412838 -0.916087
2004-11-23 15:33:25 51°14.231 2°55.318 21.226323 0.069294 0.412868 -0.882377
2004-11-23 15:34:35 51°14.094 2°55.444 21.155612 0.069294 0.41292 -0.916087
2004-11-23 15:35:45 51°13.947 2°55.546 21.16127 0.069294 0.41295 -0.882377
2004-11-23 15:37:09 51°13.761 2°55.695 21.120836 0.069294 0.412988 -0.882377
2004-11-23 15:38:17 51°13.683 2°55.842 21.112193 0.069294 0.412995 -0.882377
2004-11-23 15:39:17 51°13.648 2°55.957 21.098104 0.069294 0.413017 -0.848668
2004-11-23 15:40:17 51°13.629 2°56.033 21.10463 0.06919 0.412398 -0.882377
2004-11-23 15:41:17 51°13.617 2°56.058 20.907583 0.06919 0.41242 -0.882377